Weather at Pongtiku Airport

Public forecast

Using degrees Celsius for public forecast. Weather courtesy of forecast.io.

Closest aviation weather report (METAR) to Pongtiku Airport

Closest report is Sultan Aji Muhammad Sulaiman Sepinggan International Airport, 205.5 nm (380.6 km) WNW.

2024/04/24 12:00 (retrieved 37 minutes ago)

WALL 241200Z 06002KT 9000 FEW020 26/24 Q1008 NOSIG

Closest aviation forecast (TAF) to Pongtiku Airport

Closest forecast is Toraja Airport, 10.2 nm (19.0 km) SE.

2024/04/24 12:50 (retrieved 0 seconds ago)

TAF WAFB 241100Z 2412/2424 00000KT 7000 SCT16 BKN100 TEMPO 2414/2418 5000 RA BKN015